createdAt,value
2019-02-15T00:05:40.278Z,88.41
2019-02-15T00:08:06.027Z,88.36
2019-02-15T00:10:31.796Z,88.43
2019-02-15T00:12:57.560Z,88.48
2019-02-15T00:15:23.335Z,88.49
2019-02-15T00:20:56.281Z,88.98
2019-02-15T00:23:22.056Z,88.72
2019-02-15T00:25:47.827Z,89.03
2019-02-15T00:28:13.581Z,88.89
2019-02-15T00:30:39.366Z,89.00
2019-02-15T00:33:05.120Z,88.96
2019-02-15T00:35:30.889Z,88.90
2019-02-15T00:37:56.671Z,89.02
2019-02-15T00:40:22.446Z,89.34
2019-02-15T00:42:48.202Z,89.76
2019-02-15T00:48:01.503Z,88.73
2019-02-15T00:50:44.170Z,88.91
2019-02-15T00:53:14.787Z,89.31
2019-02-15T00:55:58.605Z,89.44
2019-02-15T00:58:44.260Z,89.40
2019-02-15T01:01:17.706Z,89.23
2019-02-15T01:03:45.368Z,89.38
2019-02-15T01:06:13.033Z,89.01
2019-02-15T01:08:46.221Z,89.65
2019-02-15T01:11:16.665Z,89.60
2019-02-15T01:13:42.422Z,88.96
2019-02-15T01:16:08.187Z,89.05
2019-02-15T01:18:33.957Z,89.22
2019-02-15T01:20:59.730Z,89.30
2019-02-15T01:23:25.469Z,89.19
2019-02-15T01:25:53.141Z,89.55
2019-02-15T01:28:20.805Z,89.57
2019-02-15T01:30:48.473Z,89.08
2019-02-15T01:33:18.669Z,88.96
2019-02-15T01:36:02.790Z,88.76
2019-02-15T01:38:30.440Z,89.21
2019-02-15T01:41:00.652Z,88.96
2019-02-15T01:43:28.323Z,89.15
2019-02-15T01:46:01.559Z,88.73
2019-02-15T01:48:27.329Z,89.32
2019-02-15T01:50:53.105Z,89.60
2019-02-15T01:53:18.853Z,89.10
2019-02-15T01:55:44.616Z,88.88
2019-02-15T01:58:10.400Z,88.80
2019-02-15T02:00:36.266Z,89.04
2019-02-15T02:03:02.024Z,88.95
2019-02-15T02:05:27.874Z,89.15
2019-02-15T02:07:53.662Z,89.34
2019-02-15T02:10:19.409Z,89.26
2019-02-15T02:12:45.198Z,89.02
2019-02-15T02:15:11.150Z,89.02
2019-02-15T02:17:36.933Z,88.59
2019-02-15T02:20:05.005Z,89.58
2019-02-15T02:22:30.784Z,88.85
2019-02-15T02:24:56.538Z,88.59
2019-02-15T02:27:22.300Z,88.84
2019-02-15T02:29:48.080Z,88.12
2019-02-15T02:32:13.847Z,89.12
2019-02-15T02:34:39.614Z,88.94
2019-02-15T02:37:05.426Z,88.77
2019-02-15T02:39:31.192Z,88.02
2019-02-15T02:41:56.949Z,88.74
2019-02-15T02:44:22.718Z,88.63
2019-02-15T02:46:48.470Z,88.35
2019-02-15T02:49:14.266Z,89.10
2019-02-15T02:51:39.990Z,88.65
2019-02-15T02:54:05.762Z,88.57
2019-02-15T02:56:31.550Z,88.80
2019-02-15T02:58:57.311Z,88.46
2019-02-15T03:01:23.289Z,88.67
2019-02-15T03:03:49.026Z,88.41
2019-02-15T03:06:14.799Z,89.21
2019-02-15T03:08:40.567Z,88.70
2019-02-15T03:11:06.319Z,89.06
2019-02-15T03:13:32.105Z,89.21
2019-02-15T03:15:57.872Z,89.78
2019-02-15T03:18:23.646Z,89.13
2019-02-15T03:20:49.399Z,89.71
2019-02-15T03:23:15.207Z,88.34
2019-02-15T03:25:40.957Z,88.99
2019-02-15T03:28:06.720Z,89.21
2019-02-15T03:30:32.480Z,89.25
2019-02-15T03:32:58.228Z,89.59
2019-02-15T03:35:24.002Z,89.31
2019-02-15T03:37:54.174Z,89.78
2019-02-15T03:40:21.839Z,89.00
2019-02-15T03:42:47.597Z,89.49
2019-02-15T03:45:15.270Z,88.77
2019-02-15T03:47:41.018Z,88.68
2019-02-15T03:50:07.205Z,88.96
2019-02-15T03:52:32.993Z,89.85
2019-02-15T03:54:58.760Z,89.51
2019-02-15T03:57:24.507Z,89.77
2019-02-15T03:59:50.279Z,89.33
2019-02-15T04:02:16.052Z,89.08
2019-02-15T04:04:41.800Z,88.72
2019-02-15T04:07:07.549Z,89.25
2019-02-15T04:09:33.341Z,89.01
2019-02-15T04:11:59.109Z,89.08
2019-02-15T04:14:32.499Z,88.84
2019-02-15T04:16:52.533Z,89.51
2019-02-15T04:19:18.290Z,89.03
2019-02-15T04:21:44.069Z,88.92
2019-02-15T04:24:09.833Z,89.33
2019-02-15T04:26:35.605Z,89.86
2019-02-15T04:29:01.363Z,89.14
2019-02-15T04:31:27.127Z,88.76
2019-02-15T04:33:52.878Z,88.82
2019-02-15T04:36:18.649Z,89.06
2019-02-15T04:38:44.433Z,89.12
2019-02-15T04:41:10.206Z,89.09
2019-02-15T04:43:35.955Z,89.96
2019-02-15T04:46:01.721Z,89.04
2019-02-15T04:48:27.472Z,88.79
2019-02-15T04:50:53.239Z,89.17
2019-02-15T04:53:18.990Z,88.86
2019-02-15T04:55:44.749Z,89.03
2019-02-15T04:58:10.503Z,88.75
2019-02-15T05:00:36.275Z,88.79
2019-02-15T05:03:02.025Z,88.95
2019-02-15T05:05:27.793Z,89.03
2019-02-15T05:07:53.548Z,88.92
2019-02-15T05:10:19.297Z,88.59
2019-02-15T05:12:45.080Z,88.31
2019-02-15T05:15:10.820Z,89.34
2019-02-15T05:17:36.584Z,89.37
2019-02-15T05:20:03.837Z,89.29
2019-02-15T05:22:29.602Z,88.53
2019-02-15T05:24:55.350Z,88.25
2019-02-15T05:27:21.114Z,88.01
2019-02-15T05:29:46.878Z,87.65
2019-02-15T05:32:12.634Z,87.44
2019-02-15T05:34:38.374Z,87.75
2019-02-15T05:37:04.161Z,87.45
2019-02-15T05:39:29.910Z,87.56
2019-02-15T05:41:55.668Z,87.68
2019-02-15T05:44:21.443Z,87.34
2019-02-15T05:46:47.216Z,87.17
2019-02-15T05:49:12.965Z,87.03
2019-02-15T05:51:38.733Z,87.16
2019-02-15T05:54:04.481Z,87.19
2019-02-15T05:56:30.244Z,87.05
2019-02-15T05:58:55.994Z,87.24
2019-02-15T06:01:23.284Z,86.86
2019-02-15T06:03:49.049Z,87.09
2019-02-15T06:06:14.810Z,87.08
2019-02-15T06:08:40.573Z,87.18
2019-02-15T06:11:08.123Z,88.03
2019-02-15T06:13:34.005Z,87.79
2019-02-15T06:15:59.754Z,87.74
2019-02-15T06:18:25.521Z,87.05
2019-02-15T06:20:51.275Z,86.63
2019-02-15T06:23:17.036Z,86.61
2019-02-15T06:25:42.786Z,86.57
2019-02-15T06:28:10.441Z,86.82
2019-02-15T06:30:36.209Z,86.76
2019-02-15T06:33:01.971Z,87.01
2019-02-15T06:35:27.745Z,86.89
2019-02-15T06:37:53.516Z,86.89
2019-02-15T06:40:19.280Z,87.14
2019-02-15T06:42:45.051Z,87.34
2019-02-15T06:45:10.799Z,87.02
2019-02-15T06:47:36.554Z,87.00
2019-02-15T06:50:03.126Z,86.97
2019-02-15T06:52:28.870Z,86.90
2019-02-15T06:54:54.630Z,87.59
2019-02-15T06:57:20.391Z,88.21
2019-02-15T06:59:53.913Z,87.38
2019-02-15T07:02:27.463Z,87.41
2019-02-15T07:05:11.508Z,87.65
2019-02-15T07:07:37.254Z,87.51
2019-02-15T07:10:04.818Z,87.56
2019-02-15T07:12:30.570Z,87.70
2019-02-15T07:14:56.338Z,87.67
2019-02-15T07:17:22.096Z,87.55
2019-02-15T07:19:47.857Z,88.03
2019-02-15T07:22:13.620Z,88.14
2019-02-15T07:24:39.388Z,88.05
2019-02-15T07:27:05.149Z,88.23
2019-02-15T07:29:30.904Z,88.35
2019-02-15T07:31:56.659Z,88.16
2019-02-15T07:34:22.421Z,88.16
2019-02-15T07:36:48.404Z,88.89
2019-02-15T07:39:14.170Z,89.58
2019-02-15T07:41:39.933Z,89.58
2019-02-15T07:44:05.715Z,89.25
2019-02-15T07:46:31.461Z,89.76
2019-02-15T07:48:57.218Z,89.56
2019-02-15T07:51:22.994Z,89.72
2019-02-15T07:53:48.740Z,89.63
2019-02-15T07:56:14.509Z,90.13
2019-02-15T07:58:40.261Z,90.10
2019-02-15T08:01:06.032Z,90.27
2019-02-15T08:03:31.798Z,90.51
2019-02-15T08:05:57.572Z,90.51
2019-02-15T08:08:23.324Z,89.88
2019-02-15T08:10:49.099Z,90.18
2019-02-15T08:13:14.845Z,90.66
2019-02-15T08:15:40.621Z,90.54
2019-02-15T08:18:06.377Z,91.00
2019-02-15T08:20:32.154Z,91.21
2019-02-15T08:22:57.898Z,90.47
2019-02-15T08:25:23.668Z,91.03
2019-02-15T08:27:49.427Z,90.41
2019-02-15T08:30:15.199Z,90.29
2019-02-15T08:32:40.955Z,90.38
2019-02-15T08:35:08.772Z,90.52
2019-02-15T08:37:34.551Z,89.55
2019-02-15T08:40:00.353Z,89.75
2019-02-15T08:42:26.068Z,89.27
2019-02-15T08:44:51.819Z,88.90
2019-02-15T08:47:17.579Z,88.44
2019-02-15T08:49:43.337Z,88.88
2019-02-15T08:52:09.147Z,87.57
2019-02-15T08:54:34.901Z,87.66
2019-02-15T08:57:00.652Z,86.23
2019-02-15T08:59:26.405Z,86.13
2019-02-15T09:02:05.755Z,85.55
2019-02-15T09:04:31.506Z,85.44
2019-02-15T09:06:57.274Z,85.50
2019-02-15T09:09:23.031Z,85.87
2019-02-15T09:11:48.798Z,86.05
2019-02-15T09:14:14.545Z,85.90
2019-02-15T09:16:40.312Z,85.34
2019-02-15T09:19:06.067Z,85.27
2019-02-15T09:21:31.829Z,84.54
2019-02-15T09:23:57.590Z,83.13
2019-02-15T09:26:23.369Z,82.32
2019-02-15T09:28:51.023Z,83.78
2019-02-15T09:31:16.785Z,83.62
2019-02-15T09:33:42.557Z,82.66
2019-02-15T09:36:08.306Z,81.92
2019-02-15T09:38:34.094Z,82.57
2019-02-15T09:40:59.845Z,79.98
2019-02-15T09:43:25.613Z,77.52
2019-02-15T09:45:51.366Z,77.49
2019-02-15T09:48:17.143Z,73.26
2019-02-15T09:50:42.894Z,73.03
2019-02-15T09:53:08.758Z,72.22
2019-02-15T09:55:34.452Z,69.47
2019-02-15T09:58:00.222Z,69.08
2019-02-15T10:00:25.992Z,68.91
2019-02-15T10:02:51.761Z,67.61
2019-02-15T10:05:17.525Z,66.01
2019-02-15T10:07:43.301Z,68.29
2019-02-15T10:10:09.057Z,63.97
2019-02-15T10:12:34.816Z,61.99
2019-02-15T10:15:00.582Z,61.63
2019-02-15T10:17:26.336Z,61.45
2019-02-15T10:19:52.106Z,60.33
2019-02-15T10:22:17.864Z,59.66
2019-02-15T10:24:43.650Z,58.48
2019-02-15T10:27:09.398Z,60.48
2019-02-15T10:29:35.158Z,57.12
2019-02-15T10:32:01.020Z,57.64
2019-02-15T10:34:26.773Z,57.73
2019-02-15T10:36:52.545Z,57.71
2019-02-15T10:39:18.317Z,56.27
2019-02-15T10:41:44.074Z,57.82
2019-02-15T10:44:09.845Z,57.88
2019-02-15T10:46:37.859Z,58.62
2019-02-15T10:49:03.290Z,55.90
2019-02-15T10:51:29.061Z,55.90
2019-02-15T10:53:54.815Z,54.46
2019-02-15T10:56:20.574Z,53.59
2019-02-15T10:58:46.341Z,53.50
2019-02-15T11:01:12.101Z,53.98
2019-02-15T11:03:37.854Z,51.78
2019-02-15T11:06:03.619Z,51.37
2019-02-15T11:08:29.367Z,52.02
2019-02-15T11:10:55.157Z,52.54
2019-02-15T11:13:20.877Z,50.18
2019-02-15T11:15:46.637Z,52.01
2019-02-15T11:18:12.384Z,50.88
2019-02-15T11:20:38.153Z,50.19
2019-02-15T11:23:04.101Z,50.48
2019-02-15T11:25:29.937Z,49.30
2019-02-15T11:27:55.738Z,49.71
2019-02-15T11:30:21.546Z,49.81
2019-02-15T11:32:47.323Z,47.81
2019-02-15T11:35:13.089Z,48.08
2019-02-15T11:37:38.878Z,47.53
2019-02-15T11:40:08.472Z,47.57
2019-02-15T11:42:36.200Z,47.15
2019-02-15T11:45:04.159Z,47.50
2019-02-15T11:47:31.014Z,47.91
2019-02-15T11:49:56.850Z,47.03
2019-02-15T11:52:22.641Z,46.48
2019-02-15T11:54:48.421Z,47.08
2019-02-15T11:57:14.223Z,46.56
2019-02-15T11:59:40.010Z,45.63
2019-02-15T12:02:06.672Z,45.75
2019-02-15T12:04:32.487Z,46.07
2019-02-15T12:06:58.276Z,45.71
2019-02-15T12:09:24.039Z,45.75
2019-02-15T12:11:49.867Z,44.98
2019-02-15T12:14:15.648Z,46.93
2019-02-15T12:16:41.517Z,45.86
2019-02-15T12:19:07.294Z,44.67
2019-02-15T12:21:33.086Z,45.17
2019-02-15T12:23:58.842Z,45.23
2019-02-15T12:26:24.652Z,45.20
2019-02-15T12:28:50.446Z,44.49
2019-02-15T12:31:16.226Z,45.22
2019-02-15T12:33:42.030Z,44.92
2019-02-15T12:36:07.882Z,44.51
2019-02-15T12:38:33.741Z,43.69
2019-02-15T12:40:59.545Z,41.70
2019-02-15T12:43:25.383Z,42.20
2019-02-15T12:45:51.186Z,42.98
2019-02-15T12:48:17.002Z,42.64
2019-02-15T12:50:43.047Z,42.72
2019-02-15T12:53:08.873Z,43.94
2019-02-15T12:55:34.700Z,42.90
2019-02-15T12:58:00.503Z,43.08
2019-02-15T13:00:26.290Z,43.18
2019-02-15T13:02:52.091Z,43.21
2019-02-15T13:05:17.958Z,43.73
2019-02-15T13:07:43.770Z,42.11
2019-02-15T13:10:12.362Z,42.96
2019-02-15T13:12:38.122Z,42.24
2019-02-15T13:15:08.616Z,41.86
2019-02-15T13:17:34.432Z,41.00
2019-02-15T13:20:00.239Z,42.08
2019-02-15T13:22:26.063Z,39.57
2019-02-15T13:24:51.858Z,38.50
2019-02-15T13:27:17.629Z,39.17
2019-02-15T13:29:43.452Z,39.30
2019-02-15T13:32:09.210Z,39.57
2019-02-15T13:34:35.068Z,39.15
2019-02-15T13:37:00.840Z,38.26
2019-02-15T13:39:26.670Z,37.53
2019-02-15T13:41:52.454Z,37.11
2019-02-15T13:44:18.273Z,38.36
2019-02-15T13:46:45.958Z,39.33
2019-02-15T13:49:13.069Z,38.47
2019-02-15T13:51:38.897Z,38.70
2019-02-15T13:54:04.693Z,36.53
2019-02-15T13:56:30.463Z,36.61
2019-02-15T13:58:56.233Z,37.05
2019-02-15T14:01:22.227Z,36.69
2019-02-15T14:03:48.082Z,36.44
2019-02-15T14:06:13.933Z,36.76
2019-02-15T14:08:39.697Z,36.40
2019-02-15T14:11:05.546Z,37.37
2019-02-15T14:13:31.332Z,36.81
2019-02-15T14:15:57.109Z,37.33
2019-02-15T14:18:22.887Z,37.69
2019-02-15T14:20:48.715Z,38.28
2019-02-15T14:23:14.553Z,38.25
2019-02-15T14:25:40.344Z,38.31
2019-02-15T14:28:06.346Z,37.27
2019-02-15T14:30:32.136Z,37.11
2019-02-15T14:32:57.882Z,36.65
2019-02-15T14:35:23.753Z,37.08
2019-02-15T14:37:49.551Z,38.34
2019-02-15T14:40:15.514Z,38.63
2019-02-15T14:42:41.260Z,38.73
2019-02-15T14:45:08.829Z,38.15
2019-02-15T14:47:34.584Z,38.11
2019-02-15T14:50:00.506Z,38.23
2019-02-15T14:52:26.220Z,38.81
2019-02-15T14:54:51.971Z,37.89
2019-02-15T14:57:17.740Z,38.54
2019-02-15T14:59:43.484Z,39.12
2019-02-15T15:02:09.248Z,38.29
2019-02-15T15:04:35.006Z,38.84
2019-02-15T15:07:00.774Z,38.12
2019-02-15T15:09:26.519Z,38.41
2019-02-15T15:11:52.905Z,37.95
2019-02-15T15:14:18.733Z,37.99
2019-02-15T15:16:44.497Z,38.86
2019-02-15T15:19:10.253Z,38.21
2019-02-15T15:21:36.029Z,39.17
2019-02-15T15:24:01.790Z,38.93
2019-02-15T15:26:27.553Z,39.98
2019-02-15T15:28:53.300Z,38.39
2019-02-15T15:31:19.060Z,39.99
2019-02-15T15:33:44.803Z,39.72
2019-02-15T15:36:10.590Z,41.10
2019-02-15T15:38:36.367Z,40.71
2019-02-15T15:41:02.139Z,41.72
2019-02-15T15:43:27.889Z,40.68
2019-02-15T15:45:53.654Z,40.54
2019-02-15T15:48:22.661Z,39.82
2019-02-15T15:50:47.073Z,39.75
2019-02-15T15:53:12.838Z,40.18
2019-02-15T15:55:38.590Z,41.24
2019-02-15T15:58:04.370Z,40.46
2019-02-15T16:00:38.674Z,41.19
2019-02-15T16:02:57.800Z,41.43
2019-02-15T16:05:23.547Z,41.87
2019-02-15T16:07:49.342Z,41.93
2019-02-15T16:10:15.117Z,42.90
2019-02-15T16:12:40.889Z,43.24
2019-02-15T16:15:08.923Z,43.66
2019-02-15T16:17:34.713Z,43.71
2019-02-15T16:20:01.193Z,44.46
2019-02-15T16:22:26.970Z,43.67
2019-02-15T16:24:52.730Z,44.79
2019-02-15T16:27:18.492Z,44.64
2019-02-15T16:29:44.242Z,45.01
2019-02-15T16:32:10.011Z,45.27
2019-02-15T16:34:35.751Z,45.90
2019-02-15T16:37:01.568Z,46.34
2019-02-15T16:39:27.351Z,46.18
2019-02-15T16:41:53.159Z,46.34
2019-02-15T16:44:18.908Z,46.11
2019-02-15T16:46:44.662Z,46.14
2019-02-15T16:49:10.456Z,46.69
2019-02-15T16:51:36.217Z,48.33
2019-02-15T16:54:03.424Z,48.09
2019-02-15T16:56:29.205Z,50.43
2019-02-15T16:58:54.951Z,50.43
2019-02-15T17:01:20.829Z,50.87
2019-02-15T17:03:46.597Z,50.53
2019-02-15T17:06:12.347Z,50.25
2019-02-15T17:08:38.109Z,49.41
2019-02-15T17:11:03.912Z,49.06
2019-02-15T17:13:29.966Z,48.61
2019-02-15T17:15:55.746Z,48.49
2019-02-15T17:18:21.513Z,49.17
2019-02-15T17:20:47.260Z,48.74
2019-02-15T17:23:13.025Z,48.76
2019-02-15T17:25:38.777Z,48.44
2019-02-15T17:28:04.540Z,48.90
2019-02-15T17:30:30.306Z,49.19
2019-02-15T17:32:56.093Z,49.28
2019-02-15T17:35:21.852Z,49.39
2019-02-15T17:37:47.629Z,49.55
2019-02-15T17:40:14.798Z,49.56
2019-02-15T17:42:40.559Z,49.70
2019-02-15T17:45:08.431Z,49.70
2019-02-15T17:47:34.186Z,50.50
2019-02-15T17:49:59.955Z,51.20
2019-02-15T17:52:25.714Z,52.40
2019-02-15T17:54:51.488Z,52.75
2019-02-15T17:57:17.257Z,53.21
2019-02-15T17:59:43.033Z,53.29
2019-02-15T18:02:09.184Z,53.96
2019-02-15T18:04:34.952Z,54.02
2019-02-15T18:07:00.700Z,54.25
2019-02-15T18:09:26.459Z,54.50
2019-02-15T18:11:52.209Z,54.80
2019-02-15T18:14:17.982Z,55.51
2019-02-15T18:16:43.778Z,56.34
2019-02-15T18:19:10.430Z,56.92
2019-02-15T18:21:36.386Z,56.47
2019-02-15T18:24:02.106Z,56.32
2019-02-15T18:26:27.909Z,56.04
2019-02-15T18:28:55.053Z,55.12
2019-02-15T18:31:20.821Z,54.96
2019-02-15T18:33:48.020Z,55.28
2019-02-15T18:36:15.113Z,55.97
2019-02-15T18:38:40.896Z,56.09
2019-02-15T18:41:13.334Z,55.73
2019-02-15T18:43:34.288Z,55.73
2019-02-15T18:46:00.053Z,55.71
2019-02-15T18:48:25.815Z,55.63
2019-02-15T18:50:51.578Z,55.64
2019-02-15T18:53:17.353Z,56.27
2019-02-15T18:55:43.117Z,56.96
2019-02-15T18:58:08.869Z,57.49
2019-02-15T19:00:34.633Z,58.05
2019-02-15T19:03:00.394Z,58.87
2019-02-15T19:05:26.162Z,59.74
2019-02-15T19:07:51.922Z,60.15
2019-02-15T19:10:21.979Z,60.92
2019-02-15T19:12:47.729Z,61.24
2019-02-15T19:15:14.780Z,61.44
2019-02-15T19:17:40.543Z,61.49
2019-02-15T19:20:08.915Z,61.55
2019-02-15T19:22:34.666Z,61.92
2019-02-15T19:25:00.431Z,62.12
2019-02-15T19:27:26.200Z,63.05
2019-02-15T19:29:51.955Z,63.41
2019-02-15T19:32:17.832Z,63.48
2019-02-15T19:34:43.593Z,63.43
2019-02-15T19:37:09.399Z,63.51
2019-02-15T19:39:35.163Z,63.71
2019-02-15T19:42:01.422Z,63.87
2019-02-15T19:44:27.171Z,63.99
2019-02-15T19:46:52.938Z,63.92
2019-02-15T19:49:18.705Z,63.72
2019-02-15T19:51:44.475Z,63.61
2019-02-15T19:54:10.235Z,64.82
2019-02-15T19:56:36.010Z,64.80
2019-02-15T19:59:01.768Z,65.44
2019-02-15T20:01:27.517Z,65.78
2019-02-15T20:03:53.293Z,66.74
2019-02-15T20:06:19.340Z,66.39
2019-02-15T20:08:45.112Z,67.31
2019-02-15T20:11:11.037Z,66.83
2019-02-15T20:13:36.798Z,67.25
2019-02-15T20:16:02.552Z,67.21
2019-02-15T20:18:28.325Z,67.45
2019-02-15T20:20:54.071Z,68.07
2019-02-15T20:23:19.837Z,68.77
2019-02-15T20:25:45.591Z,69.15
2019-02-15T20:28:14.202Z,68.79
2019-02-15T20:30:39.000Z,68.51
2019-02-15T20:33:04.762Z,68.68
2019-02-15T20:35:30.524Z,68.54
2019-02-15T20:37:56.293Z,68.62
2019-02-15T20:40:22.071Z,68.94
2019-02-15T20:42:48.087Z,69.25
2019-02-15T20:45:16.708Z,69.88
2019-02-15T20:47:42.469Z,69.53
2019-02-15T20:50:09.823Z,70.33
2019-02-15T20:52:35.587Z,69.82
2019-02-15T20:55:01.352Z,69.83
2019-02-15T20:57:27.088Z,69.96
2019-02-15T20:59:52.858Z,70.70
2019-02-15T21:02:19.094Z,70.64
2019-02-15T21:04:45.472Z,70.61
2019-02-15T21:07:11.621Z,70.86
2019-02-15T21:09:37.613Z,70.58
2019-02-15T21:12:03.410Z,70.50
2019-02-15T21:14:30.985Z,70.55
2019-02-15T21:16:56.741Z,70.46
2019-02-15T21:19:22.520Z,70.67
2019-02-15T21:21:48.267Z,70.73
2019-02-15T21:24:14.260Z,71.23
2019-02-15T21:26:40.481Z,71.58
2019-02-15T21:29:06.534Z,71.76
2019-02-15T21:31:32.584Z,71.70
2019-02-15T21:33:58.458Z,71.68
2019-02-15T21:36:24.400Z,71.42
2019-02-15T21:38:50.394Z,71.49
2019-02-15T21:41:16.157Z,71.80
2019-02-15T21:43:41.923Z,71.87
2019-02-15T21:46:09.238Z,72.19
2019-02-15T21:48:35.198Z,72.48
2019-02-15T21:51:01.207Z,72.30
2019-02-15T21:53:27.361Z,72.82
2019-02-15T21:55:53.298Z,72.93
2019-02-15T21:58:19.217Z,72.48
2019-02-15T22:00:44.967Z,72.68
2019-02-15T22:03:10.713Z,72.73
2019-02-15T22:05:36.474Z,72.33
2019-02-15T22:08:02.514Z,72.37
2019-02-15T22:10:28.578Z,72.03
2019-02-15T22:12:54.536Z,71.77
2019-02-15T22:15:20.716Z,71.70
2019-02-15T22:17:46.465Z,71.88
2019-02-15T22:20:13.328Z,72.77
2019-02-15T22:22:39.353Z,73.33
2019-02-15T22:25:05.918Z,73.38
2019-02-15T22:27:31.668Z,73.88
2019-02-15T22:29:57.541Z,74.19
2019-02-15T22:32:23.454Z,74.68
2019-02-15T22:34:49.535Z,75.06
2019-02-15T22:37:16.920Z,75.22
2019-02-15T22:39:42.930Z,75.29
2019-02-15T22:42:08.820Z,75.05
2019-02-15T22:44:35.095Z,74.79
2019-02-15T22:47:01.740Z,74.04
2019-02-15T22:49:27.507Z,73.41
2019-02-15T22:51:53.576Z,73.15
2019-02-15T22:54:19.450Z,73.28
2019-02-15T22:56:46.023Z,73.02
2019-02-15T22:59:11.974Z,73.14
2019-02-15T23:01:37.824Z,72.96
2019-02-15T23:04:03.973Z,73.02
2019-02-15T23:06:29.892Z,73.28
2019-02-15T23:08:55.643Z,73.98
2019-02-15T23:11:21.406Z,74.21
2019-02-15T23:13:47.157Z,74.79
2019-02-15T23:16:12.920Z,75.25
2019-02-15T23:18:38.672Z,75.48
2019-02-15T23:21:04.433Z,76.06
2019-02-15T23:23:30.303Z,76.26
2019-02-15T23:25:56.090Z,76.25
2019-02-15T23:28:21.967Z,76.42
2019-02-15T23:30:47.727Z,76.43
2019-02-15T23:33:13.486Z,75.82
2019-02-15T23:35:39.251Z,75.72
2019-02-15T23:38:04.997Z,75.89
2019-02-15T23:40:30.786Z,75.31
2019-02-15T23:42:56.531Z,75.61
2019-02-15T23:45:22.343Z,76.00
2019-02-15T23:47:48.262Z,76.85
2019-02-15T23:50:14.031Z,76.61
2019-02-15T23:52:39.740Z,76.39
2019-02-15T23:55:05.504Z,76.46
2019-02-15T23:57:31.247Z,75.55
2019-02-15T23:59:57.000Z,75.35
